.
WxDataArchive / Data Records for 2014-08-26
2014-08-25 August 2014 2014-08-27

Data Records for Tuesday, 26 August 2014

Time	Temp	Chill	HIndex	Humid	Dewpt	 Wind 	HiWind	WindDir	Rain 	Barom
-----	----	-----	------	-----	-----	------	------	-------	-----	-----
00:00	72.8	72.8	72.8	76	64.8	0	1	270	0.00	30.018 
00:05	72.7	72.7	72.7	76	64.7	0	0	---	0.00	30.018 
00:10	72.7	72.7	72.7	76	64.7	0	1	270	0.00	30.018 
00:15	72.5	72.5	72.5	76	64.5	0	0	---	0.00	30.011 
00:20	72.3	72.3	72.3	76	64.3	0	0	---	0.00	30.011 
00:25	72.1	72.1	72.1	77	64.5	0	0	---	0.00	30.011 
00:30	72.1	72.1	72.1	77	64.5	0	1	270	0.00	30.011 
00:35	72.0	72.0	72.0	78	64.8	0	0	---	0.00	30.011 
00:40	71.8	71.8	71.8	78	64.6	0	0	---	0.00	30.011 
00:45	71.6	71.6	71.6	79	64.7	0	0	---	0.00	30.012 
00:50	71.5	71.5	71.5	79	64.6	0	0	---	0.00	30.012 
00:55	71.3	71.3	71.3	80	64.8	0	0	---	0.00	30.012 
01:00	71.1	71.1	71.1	80	64.6	0	0	---	0.00	30.013 
01:05	70.9	70.9	70.9	81	64.8	0	0	---	0.00	30.013 
01:10	70.8	70.8	70.8	81	64.7	0	0	---	0.00	30.013 
01:15	70.6	70.6	70.6	82	64.8	0	0	---	0.00	30.012 
01:20	70.4	70.4	70.4	82	64.6	0	0	---	0.00	30.012 
01:25	70.3	70.3	70.3	83	64.9	0	0	---	0.00	30.012 
01:30	70.1	70.1	70.1	83	64.7	0	0	---	0.00	30.012 
01:35	69.9	69.9	69.9	84	64.8	0	0	---	0.00	30.012 
01:40	69.8	69.8	69.8	84	64.7	0	0	---	0.00	30.012 
01:45	69.6	69.6	69.6	84	64.5	0	0	---	0.00	30.018 
01:50	69.6	69.6	69.6	85	64.9	0	0	---	0.00	30.018 
01:55	69.4	69.4	69.4	85	64.7	0	0	---	0.00	30.018 
02:00	69.3	69.3	69.3	86	64.9	0	0	---	0.00	30.009 
02:05	69.3	69.3	69.3	86	64.9	0	0	---	0.00	30.009 
02:10	69.1	69.1	69.1	86	64.7	0	0	---	0.00	30.009 
02:15	69.1	69.1	69.1	86	64.7	0	0	---	0.00	30.013 
02:20	69.1	69.1	69.1	86	64.7	0	0	---	0.00	30.013 
02:25	68.9	68.9	68.9	87	64.9	0	1	270	0.00	30.013 
02:30	68.9	68.9	68.9	87	64.9	0	0	---	0.00	30.005 
02:35	68.9	68.9	68.9	88	65.2	0	0	---	0.00	30.005 
02:40	68.9	68.9	68.9	88	65.2	0	1	270	0.00	30.005 
02:45	68.9	68.9	68.9	88	65.2	0	1	270	0.00	30.002 
02:50	68.9	68.9	68.9	88	65.2	0	0	---	0.00	30.002 
02:55	68.8	68.8	68.8	88	65.1	0	0	---	0.00	30.002 
03:00	68.8	68.8	68.8	88	65.1	0	0	---	0.00	30.003 
03:05	68.6	68.6	68.6	88	64.9	0	0	---	0.00	30.003 
03:10	68.6	68.6	68.6	88	64.9	0	1	270	0.00	30.003 
03:15	68.6	68.6	68.6	88	64.9	0	0	---	0.00	29.999 
03:20	68.4	68.4	68.4	89	65.0	0	0	---	0.00	29.999 
03:25	68.4	68.4	68.4	89	65.0	0	0	---	0.00	29.999 
03:30	68.3	68.3	68.3	89	64.9	0	0	---	0.00	30.003 
03:35	68.3	68.3	68.3	89	64.9	0	0	---	0.00	30.003 
03:40	68.1	68.1	68.1	89	64.7	0	0	---	0.00	30.003 
03:45	68.1	68.1	68.1	90	65.0	0	0	---	0.00	30.002 
03:50	68.1	68.1	68.1	90	65.0	0	0	---	0.00	30.002 
03:55	67.9	67.9	67.9	90	64.9	0	0	---	0.00	30.002 
04:00	67.9	67.9	67.9	90	64.9	0	0	---	0.00	30.000 
04:05	67.8	67.8	67.8	90	64.8	0	0	---	0.00	30.000 
04:10	67.8	67.8	67.8	91	65.1	0	0	---	0.00	30.000 
04:15	67.8	67.8	67.8	91	65.1	0	0	---	0.00	30.007 
04:20	67.9	67.9	67.9	91	65.2	0	1	270	0.00	30.007 
04:25	67.9	67.9	67.9	92	65.5	0	0	---	0.00	30.007 
04:30	68.1	68.1	68.1	92	65.7	0	0	---	0.00	30.006 
04:35	68.1	68.1	68.1	92	65.7	0	0	---	0.00	30.006 
04:40	68.1	68.1	68.1	92	65.7	0	0	---	0.00	30.006 
04:45	68.1	68.1	68.1	92	65.7	0	0	---	0.00	30.010 
04:50	68.1	68.1	68.1	92	65.7	0	0	---	0.00	30.010 
04:55	67.9	67.9	67.9	92	65.5	0	0	---	0.00	30.010 
05:00	67.9	67.9	67.9	92	65.5	0	0	---	0.00	30.016 
05:05	67.9	67.9	67.9	92	65.5	0	0	---	0.00	30.016 
05:10	67.9	67.9	67.9	92	65.5	0	0	---	0.00	30.016 
05:15	67.9	67.9	67.9	92	65.5	0	0	---	0.00	30.016 
05:20	67.8	67.8	67.8	92	65.4	0	0	---	0.00	30.016 
05:25	67.8	67.8	67.8	92	65.4	0	0	---	0.00	30.016 
05:30	67.6	67.6	67.6	92	65.2	0	0	---	0.00	30.012 
05:35	67.6	67.6	67.6	92	65.2	0	0	---	0.00	30.012 
05:40	67.6	67.6	67.6	92	65.2	0	0	---	0.00	30.012 
05:45	67.4	67.4	67.4	92	65.0	0	0	---	0.00	30.017 
05:50	67.4	67.4	67.4	92	65.0	0	0	---	0.00	30.017 
05:55	67.3	67.3	67.3	92	64.9	0	0	---	0.00	30.017 
06:00	67.3	67.3	67.3	93	65.2	0	0	---	0.00	30.015 
06:05	67.3	67.3	67.3	93	65.2	0	0	---	0.00	30.015 
06:10	67.3	67.3	67.3	93	65.2	0	0	---	0.00	30.015 
06:15	67.1	67.1	67.1	93	65.0	0	0	---	0.00	30.021 
06:20	67.1	67.1	67.1	93	65.0	0	0	---	0.00	30.021 
06:25	67.1	67.1	67.1	93	65.0	0	0	---	0.00	30.021 
06:30	66.9	66.9	66.9	93	64.8	0	0	---	0.00	30.024 
06:35	66.9	66.9	66.9	93	64.8	0	0	---	0.00	30.024 
06:40	66.8	66.8	66.8	93	64.7	0	0	---	0.00	30.024 
06:45	66.8	66.8	66.8	93	64.7	0	0	---	0.00	30.029 
06:50	66.6	66.6	66.6	93	64.5	0	0	---	0.00	30.029 
06:55	66.6	66.6	66.6	93	64.5	0	0	---	0.00	30.029 
07:00	66.6	66.6	66.6	93	64.5	0	0	---	0.00	30.034 
07:05	66.6	66.6	66.6	94	64.8	0	0	---	0.00	30.034 
07:10	66.6	66.6	66.6	94	64.8	0	0	---	0.00	30.034 
07:15	66.6	66.6	66.6	94	64.8	0	0	---	0.00	30.043 
07:20	66.8	66.8	66.8	94	65.0	0	0	---	0.00	30.043 
07:25	66.8	66.8	66.8	94	65.0	0	0	---	0.00	30.043 
07:30	66.8	66.8	66.8	94	65.0	0	0	---	0.00	30.044 
07:35	67.1	67.1	67.1	94	65.3	0	0	---	0.00	30.044 
07:40	67.3	67.3	67.3	94	65.5	0	0	---	0.00	30.044 
07:45	67.6	67.6	67.6	94	65.8	0	0	---	0.00	30.048 
07:50	67.8	67.8	67.8	94	66.0	0	0	---	0.00	30.048 
07:55	68.1	68.1	68.1	95	66.6	0	0	---	0.00	30.048 
08:00	68.6	68.6	68.6	95	67.1	0	0	---	0.00	30.056 
08:05	68.9	68.9	68.9	94	67.1	0	0	---	0.00	30.056 
08:10	69.6	69.6	69.6	94	67.8	0	0	---	0.00	30.056 
08:15	70.1	70.1	70.1	94	68.3	0	0	---	0.00	30.060 
08:20	70.6	70.6	70.6	93	68.5	0	1	270	0.00	30.060 
08:25	70.9	70.9	70.9	92	68.5	1	3	270	0.00	30.060 
08:30	71.3	71.3	71.3	91	68.5	0	2	270	0.00	30.071 
08:35	71.8	71.8	71.8	90	68.7	0	1	270	0.00	30.071 
08:40	72.3	72.3	72.3	88	68.5	0	3	270	0.00	30.071 
08:45	73.0	73.0	73.0	86	68.6	1	3	270	0.00	30.069 
08:50	73.3	73.3	73.3	85	68.5	0	3	270	0.00	30.069 
08:55	74.0	74.0	74.0	82	68.1	1	4	270	0.00	30.069 
09:00	74.7	74.7	74.7	81	68.5	1	4	270	0.00	30.069 
09:05	75.4	75.4	76.2	79	68.4	0	2	270	0.00	30.069 
09:10	76.0	76.0	77.2	77	68.3	0	1	270	0.00	30.069 
09:15	76.3	76.3	77.8	74	67.4	1	2	270	0.00	30.073 
09:20	76.5	76.5	78.1	73	67.2	1	3	315	0.00	30.073 
09:25	76.5	76.5	78.1	73	67.2	0	1	315	0.00	30.073 
09:30	76.3	76.3	77.8	74	67.4	0	2	315	0.00	30.072 
09:35	76.3	76.3	77.8	74	67.4	0	1	315	0.00	30.072 
09:40	76.3	76.3	77.7	75	67.8	0	1	315	0.00	30.072 
09:45	76.3	76.3	77.8	74	67.4	0	1	315	0.00	30.062 
09:50	76.3	76.3	77.8	74	67.4	0	1	315	0.00	30.062 
09:55	76.5	76.5	78.0	75	68.0	0	1	315	0.00	30.062 
10:00	76.5	76.5	78.1	74	67.6	0	1	315	0.00	30.062 
10:05	76.5	76.5	78.1	74	67.6	0	1	315	0.00	30.062 
10:10	76.5	76.5	78.1	74	67.6	0	1	315	0.00	30.062 
10:15	76.5	76.5	78.1	74	67.6	0	1	315	0.00	30.070 
10:20	76.7	76.7	78.3	74	67.8	0	1	315	0.00	30.070 
10:25	76.7	76.7	78.3	74	67.8	0	2	315	0.00	30.070 
10:30	76.8	76.8	78.4	74	67.9	0	1	315	0.00	30.078 
10:35	77.0	77.0	78.7	74	68.1	0	2	315	0.00	30.078 
10:40	77.2	77.2	79.0	73	67.9	0	2	315	0.00	30.078 
10:45	77.4	77.4	79.3	72	67.6	1	3	315	0.00	30.084 
10:50	78.1	78.1	80.2	72	68.3	0	2	315	0.00	30.084 
10:55	78.6	78.6	80.8	70	68.0	1	4	315	0.00	30.084 
11:00	78.8	78.8	81.1	70	68.2	0	2	315	0.00	30.081 
11:05	78.8	78.8	81.1	70	68.2	0	2	315	0.00	30.081 
11:10	78.8	78.8	81.1	70	68.2	1	3	315	0.00	30.081 
11:15	78.5	78.5	80.7	69	67.5	1	3	315	0.00	30.085 
11:20	78.3	78.3	80.4	70	67.7	0	2	315	0.00	30.085 
11:25	78.3	78.3	80.5	71	68.1	0	2	315	0.00	30.085 
11:30	78.3	78.3	80.5	71	68.1	0	2	315	0.00	30.088 
11:35	78.3	78.3	80.5	71	68.1	0	2	315	0.00	30.088 
11:40	78.6	78.6	80.9	71	68.4	0	2	315	0.00	30.088 
11:45	79.2	79.2	81.7	70	68.5	0	1	315	0.00	30.084 
11:50	79.8	79.8	82.4	68	68.3	0	3	315	0.00	30.084 
11:55	80.1	80.1	82.6	66	67.7	1	3	315	0.00	30.084 
12:00	80.9	80.9	83.5	64	67.6	1	3	315	0.00	30.069 
12:05	82.2	82.2	85.5	64	68.8	1	2	315	0.00	30.069 
12:10	83.2	83.2	86.5	61	68.3	1	3	315	0.00	30.069 
12:15	84.0	84.0	87.8	61	69.1	1	5	270	0.00	30.051 
12:20	84.5	84.5	89.0	62	70.0	1	4	270	0.00	30.051 
12:25	84.9	84.9	88.5	58	68.4	0	2	270	0.00	30.051 
12:30	84.9	84.9	88.5	58	68.4	1	4	270	0.00	30.040 
12:35	85.1	85.1	88.8	58	68.6	1	2	270	0.00	30.040 
12:40	85.3	85.3	88.2	55	67.3	2	4	270	0.00	30.040 
12:45	85.5	85.5	88.6	55	67.5	1	3	270	0.00	30.036 
12:50	85.9	85.9	89.2	55	67.8	1	3	270	0.00	30.036 
12:55	86.5	86.5	89.9	54	67.8	1	4	270	0.00	30.036 
13:00	87.2	87.2	90.4	52	67.4	0	2	270	0.00	30.036 
13:05	87.4	87.4	91.1	53	68.1	0	2	270	0.00	30.036 
13:10	87.6	87.6	91.5	53	68.3	1	3	270	0.00	30.036 
13:15	87.8	87.8	91.8	53	68.5	1	4	270	0.00	30.046 
13:20	88.0	88.0	92.6	54	69.2	2	3	270	0.00	30.046 
13:25	88.0	88.0	92.2	53	68.7	1	5	270	0.00	30.046 
13:30	88.2	88.2	92.5	53	68.9	1	2	270	0.00	30.050 
13:35	88.4	88.4	92.9	53	69.1	2	5	270	0.00	30.050 
13:40	88.4	88.4	93.7	55	70.1	2	5	292	0.00	30.050 
13:45	88.2	88.2	92.9	54	69.4	2	6	315	0.00	30.051 
13:50	88.2	88.2	92.9	54	69.4	2	5	270	0.00	30.051 
13:55	88.2	88.2	93.4	55	70.0	2	4	270	0.00	30.051 
14:00	87.8	87.8	92.2	54	69.0	2	5	270	0.00	30.047 
14:05	87.4	87.4	92.6	57	70.3	2	5	292	0.00	30.047 
14:10	87.2	87.2	92.7	58	70.6	2	5	270	0.00	30.047 
14:15	86.7	86.7	92.1	59	70.6	1	3	270	0.00	30.044 
14:20	86.5	86.5	91.3	58	69.9	2	5	270	0.00	30.044 
14:25	86.1	86.1	90.9	59	70.1	2	4	292	0.00	30.044 
14:30	85.9	85.9	90.9	60	70.4	1	3	292	0.00	30.045 
14:35	85.7	85.7	90.9	61	70.7	1	3	292	0.00	30.045 
14:40	85.1	85.1	90.1	62	70.6	1	3	292	0.00	30.045 
14:45	85.1	85.1	90.4	63	71.1	1	3	292	0.00	30.046 
14:50	84.9	84.9	90.0	63	70.9	2	4	292	0.00	30.046 
14:55	84.7	84.7	89.6	63	70.7	1	4	292	0.00	30.046 
15:00	84.5	84.5	89.0	62	70.0	2	6	292	0.00	30.052 
15:05	84.3	84.3	89.2	64	70.8	2	4	315	0.00	30.052 
15:10	84.1	84.1	88.8	64	70.6	1	3	292	0.00	30.052 
15:15	84.0	84.0	88.6	64	70.5	2	4	292	0.00	30.067 
15:20	84.0	84.0	88.6	64	70.5	2	7	338	0.00	30.067 
15:25	83.8	83.8	88.6	65	70.7	2	4	315	0.00	30.067 
15:30	83.8	83.8	88.6	65	70.7	2	6	315	0.00	30.078 
15:35	83.4	83.4	87.8	65	70.4	3	7	338	0.00	30.078 
15:40	82.6	82.6	85.7	62	68.2	4	9	315	0.00	30.078 
15:45	82.0	82.0	84.8	62	67.7	4	9	315	0.00	30.089 
15:50	81.6	81.6	84.6	64	68.2	2	5	292	0.00	30.089 
15:55	81.2	81.2	84.3	66	68.7	1	4	338	0.00	30.089 
16:00	80.9	80.9	84.0	67	68.9	1	2	338	0.00	30.072 
16:05	80.9	80.9	84.3	69	69.8	1	4	338	0.00	30.072 
16:10	80.7	80.7	84.0	69	69.6	1	3	338	0.00	30.072 
16:15	80.3	80.3	82.9	66	67.9	2	5	338	0.00	30.054 
16:20	79.9	79.9	82.6	68	68.4	1	4	338	0.00	30.054 
16:25	79.8	79.8	82.5	69	68.7	1	3	338	0.00	30.054 
16:30	79.6	79.6	82.2	69	68.5	1	3	338	0.00	30.026 
16:35	79.6	79.6	82.3	70	68.9	1	3	338	0.00	30.026 
16:40	79.4	79.4	82.0	70	68.7	0	2	338	0.00	30.026 
16:45	79.6	79.6	82.6	73	70.2	0	1	338	0.00	30.016 
16:50	79.4	79.4	82.3	73	70.0	0	1	338	0.00	30.016 
16:55	79.4	79.4	82.2	72	69.6	0	3	338	0.00	30.016 
17:00	79.4	79.4	82.1	71	69.2	0	2	338	0.00	30.020 
17:05	79.4	79.4	82.1	71	69.2	0	1	338	0.00	30.020 
17:10	79.4	79.4	82.1	71	69.2	0	1	338	0.00	30.020 
17:15	79.4	79.4	82.2	72	69.6	0	1	338	0.00	30.002 
17:20	79.4	79.4	82.1	71	69.2	0	1	338	0.00	30.002 
17:25	79.6	79.6	82.4	71	69.3	0	0	---	0.00	30.002 
17:30	79.6	79.6	82.4	71	69.3	0	1	338	0.00	30.017 
17:35	79.6	79.6	82.5	72	69.8	0	1	338	0.00	30.017 
17:40	79.6	79.6	82.6	73	70.2	0	1	338	0.00	30.017 
17:45	79.6	79.6	82.5	72	69.8	0	2	338	0.00	30.010 
17:50	79.4	79.4	82.2	72	69.6	0	1	338	0.00	30.010 
17:55	79.4	79.4	82.2	72	69.6	0	2	338	0.00	30.010 
18:00	79.4	79.4	82.2	72	69.6	0	2	338	0.00	30.005 
18:05	79.4	79.4	82.1	71	69.2	0	1	338	0.00	30.005 
18:10	79.6	79.6	82.5	72	69.8	0	0	---	0.00	30.005 
18:15	79.8	79.8	82.9	72	69.9	0	0	---	0.00	30.010 
18:20	79.8	79.8	83.0	73	70.4	0	0	---	0.00	30.010 
18:25	79.8	79.8	82.9	72	69.9	0	1	338	0.00	30.010 
18:30	79.8	79.8	83.0	73	70.4	0	1	338	0.00	30.024 
18:35	79.8	79.8	82.9	72	69.9	0	0	---	0.00	30.024 
18:40	79.8	79.8	82.9	72	69.9	0	1	338	0.00	30.024 
18:45	79.8	79.8	82.9	72	69.9	0	1	338	0.00	30.026 
18:50	79.6	79.6	82.5	72	69.8	0	1	338	0.00	30.026 
18:55	79.6	79.6	82.6	73	70.2	0	1	338	0.00	30.026 
19:00	79.4	79.4	82.3	73	70.0	0	2	338	0.00	30.027 
19:05	79.2	79.2	82.0	73	69.8	1	2	338	0.00	30.027 
19:10	79.2	79.2	82.0	73	69.8	0	2	338	0.00	30.027 
19:15	79.0	79.0	81.7	74	70.0	0	1	338	0.00	30.025 
19:20	78.8	78.8	81.4	74	69.8	0	1	338	0.00	30.025 
19:25	78.8	78.8	81.4	74	69.8	0	0	---	0.00	30.025 
19:30	78.6	78.6	81.1	74	69.6	0	0	---	0.00	30.024 
19:35	78.5	78.5	80.9	73	69.1	0	1	338	0.00	30.024 
19:40	78.5	78.5	80.9	73	69.1	0	1	338	0.00	30.024 
19:45	78.5	78.5	80.8	72	68.7	0	1	338	0.00	30.024 
19:50	78.5	78.5	80.8	72	68.7	0	2	338	0.00	30.024 
19:55	78.5	78.5	80.9	73	69.1	0	1	338	0.00	30.024 
20:00	78.3	78.3	80.6	73	68.9	0	1	338	0.00	30.026 
20:05	78.1	78.1	80.3	74	69.1	0	2	338	0.00	30.026 
20:10	77.9	77.9	80.0	75	69.3	0	1	338	0.00	30.026 
20:15	77.6	77.6	79.6	76	69.4	0	2	338	0.00	30.023 
20:20	77.4	77.4	79.3	76	69.2	0	1	338	0.00	30.023 
20:25	77.0	77.0	78.7	77	69.2	0	1	338	0.00	30.023 
20:30	77.0	77.0	78.7	77	69.2	0	1	338	0.00	30.024 
20:35	76.8	76.8	78.4	77	69.0	0	0	---	0.00	30.024 
20:40	76.7	76.7	78.2	77	68.9	0	1	338	0.00	30.024 
20:45	76.5	76.5	77.9	78	69.1	0	1	338	0.00	30.023 
20:50	76.3	76.3	77.6	78	68.9	0	1	338	0.00	30.023 
20:55	76.1	76.1	77.2	79	69.1	0	1	338	0.00	30.023 
21:00	76.0	76.0	77.1	79	69.0	0	1	338	0.00	30.024 
21:05	75.8	75.8	76.7	80	69.2	0	0	---	0.00	30.024 
21:10	75.6	75.6	76.4	80	69.0	0	0	---	0.00	30.024 
21:15	75.4	75.4	76.0	81	69.1	0	1	338	0.00	30.024 
21:20	75.3	75.3	75.9	81	69.1	0	0	---	0.00	30.024 
21:25	75.1	75.1	75.6	81	68.9	0	0	---	0.00	30.024 
21:30	74.9	74.9	74.9	82	69.0	0	0	---	0.00	30.025 
21:35	74.7	74.7	74.7	82	68.8	0	0	---	0.00	30.025 
21:40	74.6	74.6	74.6	83	69.1	0	0	---	0.00	30.025 
21:45	74.4	74.4	74.4	83	68.9	0	0	---	0.00	30.024 
21:50	74.2	74.2	74.2	84	69.0	0	0	---	0.00	30.024 
21:55	73.9	73.9	73.9	84	68.7	0	0	---	0.00	30.024 
22:00	73.7	73.7	73.7	84	68.6	0	0	---	0.00	30.024 
22:05	73.5	73.5	73.5	85	68.7	0	0	---	0.00	30.024 
22:10	73.3	73.3	73.3	86	68.8	0	0	---	0.00	30.024 
22:15	73.2	73.2	73.2	86	68.7	0	0	---	0.00	30.027 
22:20	73.0	73.0	73.0	86	68.6	0	0	---	0.00	30.027 
22:25	72.8	72.8	72.8	86	68.4	0	0	---	0.00	30.027 
22:30	72.7	72.7	72.7	87	68.6	0	0	---	0.00	30.036 
22:35	72.5	72.5	72.5	87	68.4	0	0	---	0.00	30.036 
22:40	72.3	72.3	72.3	88	68.5	0	0	---	0.00	30.036 
22:45	72.1	72.1	72.1	88	68.3	0	0	---	0.00	30.041 
22:50	72.0	72.0	72.0	88	68.2	0	0	---	0.00	30.041 
22:55	71.8	71.8	71.8	88	68.0	0	0	---	0.00	30.041 
23:00	71.6	71.6	71.6	89	68.2	0	0	---	0.00	30.039 
23:05	71.6	71.6	71.6	89	68.2	0	0	---	0.00	30.039 
23:10	71.5	71.5	71.5	89	68.1	0	0	---	0.00	30.039 
23:15	71.3	71.3	71.3	89	67.9	0	0	---	0.00	30.039 
23:20	71.1	71.1	71.1	90	68.0	0	0	---	0.00	30.039 
23:25	71.1	71.1	71.1	90	68.0	0	0	---	0.00	30.039 
23:30	70.9	70.9	70.9	90	67.8	0	0	---	0.00	30.036 
23:35	70.8	70.8	70.8	90	67.7	0	0	---	0.00	30.036 
23:40	70.8	70.8	70.8	90	67.7	0	0	---	0.00	30.036 
23:45	70.6	70.6	70.6	90	67.5	0	0	---	0.00	30.024 
23:50	70.4	70.4	70.4	91	67.6	0	0	---	0.00	30.024 
23:55	70.3	70.3	70.3	91	67.5	0	0	---	0.00	30.024 

CoCoRaHS
IN-AL-39
A2 Web Hosting
Creative Commons License
GoDaddy
search engine by freefind advanced

loaded 2018-11-20 02:41:08 • last modified 2010-11-18 10:43:29
Privacy PolicyDisclaimer
• wx.awcolley.com is powered by PmWiki v.2002016 •
• all content (unless otherwise noted) © 2018 A W Colley